sensor_id;sensor_type;location;lat;lon;timestamp;temperature;humidity
41644;DHT22;44236;48.098;11.582;2023-02-28T00:00:21;16.90;36.90
41644;DHT22;44236;48.098;11.582;2023-02-28T00:02:47;16.90;37.10
41644;DHT22;44236;48.098;11.582;2023-02-28T00:05:16;16.90;37.30
41644;DHT22;44236;48.098;11.582;2023-02-28T00:07:42;16.90;37.20
41644;DHT22;44236;48.098;11.582;2023-02-28T00:10:10;16.90;36.90
41644;DHT22;44236;48.098;11.582;2023-02-28T00:12:37;16.90;37.30
41644;DHT22;44236;48.098;11.582;2023-02-28T00:15:06;16.80;37.10
41644;DHT22;44236;48.098;11.582;2023-02-28T00:17:32;16.90;37.30
41644;DHT22;44236;48.098;11.582;2023-02-28T00:19:57;16.90;37.20
41644;DHT22;44236;48.098;11.582;2023-02-28T00:22:35;16.90;37.20
41644;DHT22;44236;48.098;11.582;2023-02-28T00:25:02;16.80;37.20
41644;DHT22;44236;48.098;11.582;2023-02-28T00:27:27;16.80;37.50
41644;DHT22;44236;48.098;11.582;2023-02-28T00:29:53;16.80;37.10
41644;DHT22;44236;48.098;11.582;2023-02-28T00:32:19;16.80;37.40
41644;DHT22;44236;48.098;11.582;2023-02-28T00:34:45;16.80;37.40
41644;DHT22;44236;48.098;11.582;2023-02-28T00:37:11;16.80;37.30
41644;DHT22;44236;48.098;11.582;2023-02-28T00:39:38;16.80;37.40
41644;DHT22;44236;48.098;11.582;2023-02-28T00:42:04;16.80;37.30
41644;DHT22;44236;48.098;11.582;2023-02-28T00:44:30;16.80;37.40
41644;DHT22;44236;48.098;11.582;2023-02-28T00:46:56;16.80;37.50
41644;DHT22;44236;48.098;11.582;2023-02-28T00:49:23;16.80;37.40
41644;DHT22;44236;48.098;11.582;2023-02-28T00:51:49;16.80;37.40
41644;DHT22;44236;48.098;11.582;2023-02-28T00:54:15;16.80;37.40
41644;DHT22;44236;48.098;11.582;2023-02-28T00:56:41;16.80;37.50
41644;DHT22;44236;48.098;11.582;2023-02-28T00:59:07;16.80;37.30
41644;DHT22;44236;48.098;11.582;2023-02-28T01:01:33;16.80;37.50
41644;DHT22;44236;48.098;11.582;2023-02-28T01:03:58;16.70;37.40
41644;DHT22;44236;48.098;11.582;2023-02-28T01:06:24;16.80;37.40
41644;DHT22;44236;48.098;11.582;2023-02-28T01:08:50;16.70;37.40
41644;DHT22;44236;48.098;11.582;2023-02-28T01:11:19;16.70;37.50
41644;DHT22;44236;48.098;11.582;2023-02-28T01:13:45;16.70;37.30
41644;DHT22;44236;48.098;11.582;2023-02-28T01:16:12;16.70;37.30
41644;DHT22;44236;48.098;11.582;2023-02-28T01:18:38;16.80;37.40
41644;DHT22;44236;48.098;11.582;2023-02-28T01:21:05;16.80;37.40
41644;DHT22;44236;48.098;11.582;2023-02-28T01:23:31;16.70;37.20
41644;DHT22;44236;48.098;11.582;2023-02-28T01:26:06;16.80;37.50
41644;DHT22;44236;48.098;11.582;2023-02-28T01:28:32;16.70;37.20
41644;DHT22;44236;48.098;11.582;2023-02-28T01:31:01;16.70;37.30
41644;DHT22;44236;48.098;11.582;2023-02-28T01:33:27;16.70;37.40
41644;DHT22;44236;48.098;11.582;2023-02-28T01:36:05;16.70;37.30
41644;DHT22;44236;48.098;11.582;2023-02-28T01:38:32;16.80;37.30
41644;DHT22;44236;48.098;11.582;2023-02-28T01:40:58;16.80;37.20
41644;DHT22;44236;48.098;11.582;2023-02-28T01:45:52;16.70;37.40
41644;DHT22;44236;48.098;11.582;2023-02-28T01:48:19;16.70;37.30
41644;DHT22;44236;48.098;11.582;2023-02-28T01:50:47;16.70;37.40
41644;DHT22;44236;48.098;11.582;2023-02-28T01:53:19;16.80;37.40
41644;DHT22;44236;48.098;11.582;2023-02-28T01:55:48;16.70;37.20
41644;DHT22;44236;48.098;11.582;2023-02-28T01:58:16;16.70;37.30
41644;DHT22;44236;48.098;11.582;2023-02-28T02:00:42;16.70;37.20
41644;DHT22;44236;48.098;11.582;2023-02-28T02:03:13;16.70;37.20
41644;DHT22;44236;48.098;11.582;2023-02-28T02:05:40;16.70;37.10
41644;DHT22;44236;48.098;11.582;2023-02-28T02:08:12;16.70;37.20
41644;DHT22;44236;48.098;11.582;2023-02-28T02:10:58;16.70;37.30
41644;DHT22;44236;48.098;11.582;2023-02-28T02:16:29;16.70;37.20
41644;DHT22;44236;48.098;11.582;2023-02-28T02:31:27;16.80;37.10
41644;DHT22;44236;48.098;11.582;2023-02-28T02:42:16;16.70;37.20
41644;DHT22;44236;48.098;11.582;2023-02-28T02:44:49;16.70;37.20
41644;DHT22;44236;48.098;11.582;2023-02-28T02:47:19;16.70;37.10
41644;DHT22;44236;48.098;11.582;2023-02-28T02:49:50;16.70;37.30
41644;DHT22;44236;48.098;11.582;2023-02-28T02:52:20;16.70;37.10
41644;DHT22;44236;48.098;11.582;2023-02-28T02:54:48;16.70;37.10
41644;DHT22;44236;48.098;11.582;2023-02-28T02:57:21;16.70;37.10
41644;DHT22;44236;48.098;11.582;2023-02-28T02:59:48;16.70;37.10
41644;DHT22;44236;48.098;11.582;2023-02-28T03:02:17;16.80;37.00
41644;DHT22;44236;48.098;11.582;2023-02-28T03:04:51;16.80;37.10
41644;DHT22;44236;48.098;11.582;2023-02-28T03:07:17;16.80;36.90
41644;DHT22;44236;48.098;11.582;2023-02-28T03:09:51;16.80;37.00
41644;DHT22;44236;48.098;11.582;2023-02-28T03:12:17;16.80;37.10
41644;DHT22;44236;48.098;11.582;2023-02-28T03:15:02;16.80;37.00
41644;DHT22;44236;48.098;11.582;2023-02-28T03:23:01;16.70;37.00
41644;DHT22;44236;48.098;11.582;2023-02-28T03:28:41;16.80;37.00
41644;DHT22;44236;48.098;11.582;2023-02-28T03:31:18;16.80;36.80
41644;DHT22;44236;48.098;11.582;2023-02-28T03:33:54;16.80;37.00
41644;DHT22;44236;48.098;11.582;2023-02-28T03:36:26;16.80;36.80
41644;DHT22;44236;48.098;11.582;2023-02-28T03:39:02;16.80;36.80
41644;DHT22;44236;48.098;11.582;2023-02-28T03:41:45;16.80;36.90
41644;DHT22;44236;48.098;11.582;2023-02-28T03:44:37;16.80;37.00
41644;DHT22;44236;48.098;11.582;2023-02-28T03:47:15;16.80;36.90
41644;DHT22;44236;48.098;11.582;2023-02-28T03:50:03;16.80;36.80
41644;DHT22;44236;48.098;11.582;2023-02-28T03:52:34;16.70;36.90
41644;DHT22;44236;48.098;11.582;2023-02-28T03:55:10;16.80;36.90
41644;DHT22;44236;48.098;11.582;2023-02-28T04:00:55;16.70;36.90
41644;DHT22;44236;48.098;11.582;2023-02-28T04:03:22;16.80;36.90
41644;DHT22;44236;48.098;11.582;2023-02-28T04:05:55;16.70;36.80
41644;DHT22;44236;48.098;11.582;2023-02-28T04:08:22;16.70;36.80
41644;DHT22;44236;48.098;11.582;2023-02-28T04:11:01;16.70;36.70
41644;DHT22;44236;48.098;11.582;2023-02-28T04:13:28;16.80;36.80
41644;DHT22;44236;48.098;11.582;2023-02-28T04:15:54;16.80;36.70
41644;DHT22;44236;48.098;11.582;2023-02-28T04:18:19;16.80;36.70
41644;DHT22;44236;48.098;11.582;2023-02-28T04:20:45;16.70;36.70
41644;DHT22;44236;48.098;11.582;2023-02-28T04:23:10;16.70;36.70
41644;DHT22;44236;48.098;11.582;2023-02-28T04:25:36;16.70;36.80
41644;DHT22;44236;48.098;11.582;2023-02-28T04:28:01;16.70;36.70
41644;DHT22;44236;48.098;11.582;2023-02-28T04:30:27;16.70;36.80
41644;DHT22;44236;48.098;11.582;2023-02-28T04:32:52;16.70;36.70
41644;DHT22;44236;48.098;11.582;2023-02-28T04:35:18;16.70;36.70
41644;DHT22;44236;48.098;11.582;2023-02-28T04:37:44;16.70;36.70
41644;DHT22;44236;48.098;11.582;2023-02-28T04:40:10;16.70;36.70
41644;DHT22;44236;48.098;11.582;2023-02-28T04:42:35;16.70;36.60
41644;DHT22;44236;48.098;11.582;2023-02-28T04:45:03;16.70;36.70
41644;DHT22;44236;48.098;11.582;2023-02-28T04:47:29;16.70;36.60
41644;DHT22;44236;48.098;11.582;2023-02-28T04:49:55;16.70;36.90
41644;DHT22;44236;48.098;11.582;2023-02-28T04:52:20;16.70;36.60
41644;DHT22;44236;48.098;11.582;2023-02-28T04:54:46;16.80;36.60
41644;DHT22;44236;48.098;11.582;2023-02-28T04:57:11;16.80;36.70
41644;DHT22;44236;48.098;11.582;2023-02-28T04:59:37;16.80;36.70
41644;DHT22;44236;48.098;11.582;2023-02-28T05:02:03;16.70;36.60
41644;DHT22;44236;48.098;11.582;2023-02-28T05:04:33;16.80;36.60
41644;DHT22;44236;48.098;11.582;2023-02-28T05:07:00;16.70;36.60
41644;DHT22;44236;48.098;11.582;2023-02-28T05:09:26;16.80;36.60
41644;DHT22;44236;48.098;11.582;2023-02-28T05:11:51;16.80;36.70
41644;DHT22;44236;48.098;11.582;2023-02-28T05:14:17;16.70;36.60
41644;DHT22;44236;48.098;11.582;2023-02-28T05:16:43;16.80;36.60
41644;DHT22;44236;48.098;11.582;2023-02-28T05:19:08;16.80;36.60
41644;DHT22;44236;48.098;11.582;2023-02-28T05:21:42;16.80;36.60
41644;DHT22;44236;48.098;11.582;2023-02-28T05:24:14;16.80;36.60
41644;DHT22;44236;48.098;11.582;2023-02-28T05:26:42;16.80;36.50
41644;DHT22;44236;48.098;11.582;2023-02-28T05:29:09;16.80;36.60
41644;DHT22;44236;48.098;11.582;2023-02-28T05:31:35;16.80;36.50
41644;DHT22;44236;48.098;11.582;2023-02-28T05:34:01;16.80;36.40
41644;DHT22;44236;48.098;11.582;2023-02-28T05:36:26;16.80;36.40
41644;DHT22;44236;48.098;11.582;2023-02-28T05:38:52;16.80;36.50
41644;DHT22;44236;48.098;11.582;2023-02-28T05:41:19;16.80;36.40
41644;DHT22;44236;48.098;11.582;2023-02-28T05:43:45;16.80;36.20
41644;DHT22;44236;48.098;11.582;2023-02-28T05:46:12;16.90;36.10
41644;DHT22;44236;48.098;11.582;2023-02-28T05:48:40;16.90;36.00
41644;DHT22;44236;48.098;11.582;2023-02-28T05:51:06;16.90;36.20
41644;DHT22;44236;48.098;11.582;2023-02-28T05:53:33;16.90;36.00
41644;DHT22;44236;48.098;11.582;2023-02-28T05:55:59;16.90;36.10
41644;DHT22;44236;48.098;11.582;2023-02-28T05:58:25;16.90;36.10
41644;DHT22;44236;48.098;11.582;2023-02-28T06:01:00;16.90;35.50
41644;DHT22;44236;48.098;11.582;2023-02-28T06:03:27;16.90;36.10
41644;DHT22;44236;48.098;11.582;2023-02-28T06:05:52;16.90;35.90
41644;DHT22;44236;48.098;11.582;2023-02-28T06:08:18;16.90;36.40
41644;DHT22;44236;48.098;11.582;2023-02-28T06:10:44;16.90;36.30
41644;DHT22;44236;48.098;11.582;2023-02-28T06:13:10;16.90;35.80
41644;DHT22;44236;48.098;11.582;2023-02-28T06:15:38;16.90;35.60
41644;DHT22;44236;48.098;11.582;2023-02-28T06:18:04;17.00;36.30
41644;DHT22;44236;48.098;11.582;2023-02-28T06:20:30;17.00;35.50
41644;DHT22;44236;48.098;11.582;2023-02-28T06:22:57;16.40;32.50
41644;DHT22;44236;48.098;11.582;2023-02-28T06:25:25;14.50;32.00
41644;DHT22;44236;48.098;11.582;2023-02-28T06:27:51;14.40;34.00
41644;DHT22;44236;48.098;11.582;2023-02-28T06:30:16;14.80;35.10
41644;DHT22;44236;48.098;11.582;2023-02-28T06:32:42;15.20;36.00
41644;DHT22;44236;48.098;11.582;2023-02-28T06:35:08;15.50;36.10
41644;DHT22;44236;48.098;11.582;2023-02-28T06:37:34;15.80;36.40
41644;DHT22;44236;48.098;11.582;2023-02-28T06:40:00;16.00;35.90
41644;DHT22;44236;48.098;11.582;2023-02-28T06:42:25;16.10;36.00
41644;DHT22;44236;48.098;11.582;2023-02-28T06:44:56;16.20;35.90
41644;DHT22;44236;48.098;11.582;2023-02-28T06:47:22;16.30;36.50
41644;DHT22;44236;48.098;11.582;2023-02-28T06:49:49;16.40;36.30
41644;DHT22;44236;48.098;11.582;2023-02-28T06:52:15;16.50;36.70
41644;DHT22;44236;48.098;11.582;2023-02-28T06:54:41;16.50;36.40
41644;DHT22;44236;48.098;11.582;2023-02-28T06:57:07;16.50;36.40
41644;DHT22;44236;48.098;11.582;2023-02-28T06:59:32;16.50;36.20
41644;DHT22;44236;48.098;11.582;2023-02-28T07:01:58;16.60;36.20
41644;DHT22;44236;48.098;11.582;2023-02-28T07:04:24;16.60;36.00
41644;DHT22;44236;48.098;11.582;2023-02-28T07:06:50;16.60;36.30
41644;DHT22;44236;48.098;11.582;2023-02-28T07:09:15;16.60;35.90
41644;DHT22;44236;48.098;11.582;2023-02-28T07:11:41;16.60;36.40
41644;DHT22;44236;48.098;11.582;2023-02-28T07:14:08;16.50;36.30
41644;DHT22;44236;48.098;11.582;2023-02-28T07:16:35;16.50;36.60
41644;DHT22;44236;48.098;11.582;2023-02-28T07:19:01;16.50;37.00
41644;DHT22;44236;48.098;11.582;2023-02-28T07:21:26;16.50;37.00
41644;DHT22;44236;48.098;11.582;2023-02-28T07:23:52;16.40;36.40
41644;DHT22;44236;48.098;11.582;2023-02-28T07:26:19;16.40;37.30
41644;DHT22;44236;48.098;11.582;2023-02-28T07:28:46;16.40;36.90
41644;DHT22;44236;48.098;11.582;2023-02-28T07:31:13;16.30;36.80
41644;DHT22;44236;48.098;11.582;2023-02-28T07:33:42;16.30;36.50
41644;DHT22;44236;48.098;11.582;2023-02-28T07:36:10;16.30;36.10
41644;DHT22;44236;48.098;11.582;2023-02-28T07:38:41;16.40;36.00
41644;DHT22;44236;48.098;11.582;2023-02-28T07:41:08;16.40;35.70
41644;DHT22;44236;48.098;11.582;2023-02-28T07:43:34;16.40;35.50
41644;DHT22;44236;48.098;11.582;2023-02-28T07:46:08;16.40;36.00
41644;DHT22;44236;48.098;11.582;2023-02-28T07:48:35;16.50;35.70
41644;DHT22;44236;48.098;11.582;2023-02-28T07:51:00;16.50;35.80
41644;DHT22;44236;48.098;11.582;2023-02-28T07:53:27;16.40;36.10
41644;DHT22;44236;48.098;11.582;2023-02-28T07:55:57;16.60;35.20
41644;DHT22;44236;48.098;11.582;2023-02-28T07:58:23;16.60;35.80
41644;DHT22;44236;48.098;11.582;2023-02-28T08:00:50;16.50;35.60
41644;DHT22;44236;48.098;11.582;2023-02-28T08:03:19;16.50;35.80
41644;DHT22;44236;48.098;11.582;2023-02-28T08:05:47;16.50;36.10
41644;DHT22;44236;48.098;11.582;2023-02-28T08:08:13;16.50;36.40
41644;DHT22;44236;48.098;11.582;2023-02-28T08:10:40;16.40;36.20
41644;DHT22;44236;48.098;11.582;2023-02-28T08:13:05;16.40;36.60
41644;DHT22;44236;48.098;11.582;2023-02-28T08:15:31;16.40;36.50
41644;DHT22;44236;48.098;11.582;2023-02-28T08:17:57;16.30;36.60
41644;DHT22;44236;48.098;11.582;2023-02-28T08:20:24;16.40;36.80
41644;DHT22;44236;48.098;11.582;2023-02-28T08:22:49;16.30;36.50
41644;DHT22;44236;48.098;11.582;2023-02-28T08:25:15;16.30;36.70
41644;DHT22;44236;48.098;11.582;2023-02-28T08:27:41;16.30;36.60
41644;DHT22;44236;48.098;11.582;2023-02-28T08:30:09;16.30;36.80
41644;DHT22;44236;48.098;11.582;2023-02-28T08:32:35;16.20;37.00
41644;DHT22;44236;48.098;11.582;2023-02-28T08:35:01;16.20;36.80
41644;DHT22;44236;48.098;11.582;2023-02-28T08:37:28;16.20;36.90
41644;DHT22;44236;48.098;11.582;2023-02-28T08:39:54;16.20;36.70
41644;DHT22;44236;48.098;11.582;2023-02-28T08:42:20;16.20;36.90
41644;DHT22;44236;48.098;11.582;2023-02-28T08:44:45;16.20;37.10
41644;DHT22;44236;48.098;11.582;2023-02-28T08:47:11;16.10;37.30
41644;DHT22;44236;48.098;11.582;2023-02-28T08:49:37;16.10;37.20
41644;DHT22;44236;48.098;11.582;2023-02-28T08:52:03;16.10;37.60
41644;DHT22;44236;48.098;11.582;2023-02-28T08:54:28;16.10;37.60
41644;DHT22;44236;48.098;11.582;2023-02-28T08:56:56;16.10;37.80
41644;DHT22;44236;48.098;11.582;2023-02-28T08:59:22;16.10;37.90
41644;DHT22;44236;48.098;11.582;2023-02-28T09:01:48;16.10;37.90
41644;DHT22;44236;48.098;11.582;2023-02-28T09:04:14;16.10;38.10
41644;DHT22;44236;48.098;11.582;2023-02-28T09:06:39;16.10;38.00
41644;DHT22;44236;48.098;11.582;2023-02-28T09:09:05;16.10;37.80
41644;DHT22;44236;48.098;11.582;2023-02-28T09:11:34;16.10;38.30
41644;DHT22;44236;48.098;11.582;2023-02-28T09:14:00;16.00;38.20
41644;DHT22;44236;48.098;11.582;2023-02-28T09:16:29;16.10;52.40
41644;DHT22;44236;48.098;11.582;2023-02-28T09:18:56;16.20;44.30
41644;DHT22;44236;48.098;11.582;2023-02-28T09:21:22;16.10;41.10
41644;DHT22;44236;48.098;11.582;2023-02-28T09:23:50;16.10;41.20
41644;DHT22;44236;48.098;11.582;2023-02-28T09:26:17;16.10;41.40
41644;DHT22;44236;48.098;11.582;2023-02-28T09:28:43;16.00;41.60
41644;DHT22;44236;48.098;11.582;2023-02-28T09:31:14;16.00;41.80
41644;DHT22;44236;48.098;11.582;2023-02-28T09:33:41;16.00;41.80
41644;DHT22;44236;48.098;11.582;2023-02-28T09:36:07;16.00;42.00
41644;DHT22;44236;48.098;11.582;2023-02-28T09:38:32;16.00;41.60
41644;DHT22;44236;48.098;11.582;2023-02-28T09:41:08;15.90;41.60
41644;DHT22;44236;48.098;11.582;2023-02-28T09:43:39;15.90;41.80
41644;DHT22;44236;48.098;11.582;2023-02-28T09:46:14;15.90;41.50
41644;DHT22;44236;48.098;11.582;2023-02-28T09:48:44;15.90;41.70
41644;DHT22;44236;48.098;11.582;2023-02-28T09:51:27;15.90;40.90
41644;DHT22;44236;48.098;11.582;2023-02-28T09:53:53;15.90;41.30
41644;DHT22;44236;48.098;11.582;2023-02-28T09:56:33;15.90;41.10
41644;DHT22;44236;48.098;11.582;2023-02-28T09:59:02;15.90;41.10
41644;DHT22;44236;48.098;11.582;2023-02-28T10:06:54;15.90;40.80
41644;DHT22;44236;48.098;11.582;2023-02-28T10:09:30;15.80;40.70
41644;DHT22;44236;48.098;11.582;2023-02-28T10:12:03;15.90;40.50
41644;DHT22;44236;48.098;11.582;2023-02-28T10:14:31;15.80;40.40
41644;DHT22;44236;48.098;11.582;2023-02-28T10:17:02;15.80;40.60
41644;DHT22;44236;48.098;11.582;2023-02-28T10:19:39;15.80;40.40
41644;DHT22;44236;48.098;11.582;2023-02-28T10:22:19;15.80;40.50
41644;DHT22;44236;48.098;11.582;2023-02-28T10:24:48;15.80;40.40
41644;DHT22;44236;48.098;11.582;2023-02-28T10:27:25;15.80;40.40
41644;DHT22;44236;48.098;11.582;2023-02-28T10:29:59;15.80;40.30
41644;DHT22;44236;48.098;11.582;2023-02-28T10:32:34;15.80;40.30
41644;DHT22;44236;48.098;11.582;2023-02-28T10:35:03;15.80;40.10
41644;DHT22;44236;48.098;11.582;2023-02-28T10:37:31;15.80;40.00
41644;DHT22;44236;48.098;11.582;2023-02-28T10:39:57;15.80;40.00
41644;DHT22;44236;48.098;11.582;2023-02-28T10:42:28;15.80;39.70
41644;DHT22;44236;48.098;11.582;2023-02-28T10:45:15;15.80;39.80
41644;DHT22;44236;48.098;11.582;2023-02-28T10:47:59;15.80;39.70
41644;DHT22;44236;48.098;11.582;2023-02-28T10:56:05;15.80;39.70
41644;DHT22;44236;48.098;11.582;2023-02-28T11:01:40;15.80;39.30
41644;DHT22;44236;48.098;11.582;2023-02-28T11:07:21;15.80;39.60
41644;DHT22;44236;48.098;11.582;2023-02-28T11:09:52;15.90;39.20
41644;DHT22;44236;48.098;11.582;2023-02-28T11:12:30;15.80;39.50
41644;DHT22;44236;48.098;11.582;2023-02-28T11:15:07;15.80;39.60
41644;DHT22;44236;48.098;11.582;2023-02-28T11:17:44;15.90;39.50
41644;DHT22;44236;48.098;11.582;2023-02-28T11:20:18;15.80;39.40
41644;DHT22;44236;48.098;11.582;2023-02-28T11:22:46;15.90;39.40
41644;DHT22;44236;48.098;11.582;2023-02-28T11:25:26;15.90;39.40
41644;DHT22;44236;48.098;11.582;2023-02-28T11:27:54;15.90;39.20
41644;DHT22;44236;48.098;11.582;2023-02-28T11:32:55;15.90;39.30
41644;DHT22;44236;48.098;11.582;2023-02-28T11:37:52;15.90;39.40
41644;DHT22;44236;48.098;11.582;2023-02-28T11:40:39;16.00;39.20
41644;DHT22;44236;48.098;11.582;2023-02-28T11:43:28;16.00;38.90
41644;DHT22;44236;48.098;11.582;2023-02-28T11:46:24;15.90;38.70
41644;DHT22;44236;48.098;11.582;2023-02-28T11:52:00;16.00;39.40
41644;DHT22;44236;48.098;11.582;2023-02-28T11:54:48;16.00;39.60
41644;DHT22;44236;48.098;11.582;2023-02-28T12:19:24;15.90;39.50
41644;DHT22;44236;48.098;11.582;2023-02-28T12:22:27;15.90;39.30
41644;DHT22;44236;48.098;11.582;2023-02-28T12:27:45;15.90;39.20
41644;DHT22;44236;48.098;11.582;2023-02-28T12:30:31;15.90;39.20
41644;DHT22;44236;48.098;11.582;2023-02-28T12:33:12;15.90;39.20
41644;DHT22;44236;48.098;11.582;2023-02-28T12:35:48;15.90;39.10
41644;DHT22;44236;48.098;11.582;2023-02-28T12:38:42;16.00;39.20
41644;DHT22;44236;48.098;11.582;2023-02-28T12:41:45;15.90;39.20
41644;DHT22;44236;48.098;11.582;2023-02-28T12:46:47;16.00;38.90
41644;DHT22;44236;48.098;11.582;2023-02-28T12:49:31;16.00;39.20
41644;DHT22;44236;48.098;11.582;2023-02-28T12:52:00;16.00;38.90
41644;DHT22;44236;48.098;11.582;2023-02-28T12:55:00;16.00;38.60
41644;DHT22;44236;48.098;11.582;2023-02-28T12:57:41;16.00;38.50
41644;DHT22;44236;48.098;11.582;2023-02-28T13:10:50;15.90;38.50
41644;DHT22;44236;48.098;11.582;2023-02-28T13:13:29;15.90;39.00
41644;DHT22;44236;48.098;11.582;2023-02-28T13:16:03;15.90;38.90
41644;DHT22;44236;48.098;11.582;2023-02-28T13:18:36;15.90;38.90
41644;DHT22;44236;48.098;11.582;2023-02-28T13:21:04;15.90;38.90
41644;DHT22;44236;48.098;11.582;2023-02-28T13:26:06;15.90;39.00
41644;DHT22;44236;48.098;11.582;2023-02-28T13:29:20;15.90;39.00
41644;DHT22;44236;48.098;11.582;2023-02-28T13:34:40;15.90;39.10
41644;DHT22;44236;48.098;11.582;2023-02-28T13:39:58;15.90;39.00
41644;DHT22;44236;48.098;11.582;2023-02-28T13:42:47;15.90;39.00
41644;DHT22;44236;48.098;11.582;2023-02-28T13:45:25;15.90;39.00
41644;DHT22;44236;48.098;11.582;2023-02-28T13:48:15;15.80;39.00
41644;DHT22;44236;48.098;11.582;2023-02-28T13:50:43;15.90;39.10
41644;DHT22;44236;48.098;11.582;2023-02-28T14:04:46;15.80;39.00
41644;DHT22;44236;48.098;11.582;2023-02-28T14:07:20;15.80;39.20
41644;DHT22;44236;48.098;11.582;2023-02-28T14:09:52;15.80;38.90
41644;DHT22;44236;48.098;11.582;2023-02-28T14:18:25;15.90;39.10
41644;DHT22;44236;48.098;11.582;2023-02-28T14:20:55;15.90;39.20
41644;DHT22;44236;48.098;11.582;2023-02-28T14:34:54;15.80;39.10
41644;DHT22;44236;48.098;11.582;2023-02-28T14:37:29;15.80;39.10
41644;DHT22;44236;48.098;11.582;2023-02-28T14:39:57;15.80;39.10
41644;DHT22;44236;48.098;11.582;2023-02-28T14:42:31;15.80;39.30
41644;DHT22;44236;48.098;11.582;2023-02-28T14:44:58;15.80;39.40
41644;DHT22;44236;48.098;11.582;2023-02-28T14:47:28;15.80;39.10
41644;DHT22;44236;48.098;11.582;2023-02-28T14:49:57;15.80;39.10
41644;DHT22;44236;48.098;11.582;2023-02-28T14:52:31;15.80;39.20
41644;DHT22;44236;48.098;11.582;2023-02-28T15:00:12;15.80;39.30
41644;DHT22;44236;48.098;11.582;2023-02-28T15:02:39;15.80;39.10
41644;DHT22;44236;48.098;11.582;2023-02-28T15:07:48;15.80;39.00
41644;DHT22;44236;48.098;11.582;2023-02-28T15:10:21;15.80;39.30
41644;DHT22;44236;48.098;11.582;2023-02-28T15:12:57;15.80;39.10
41644;DHT22;44236;48.098;11.582;2023-02-28T15:18:14;15.80;39.20
41644;DHT22;44236;48.098;11.582;2023-02-28T15:20:42;15.80;39.30
41644;DHT22;44236;48.098;11.582;2023-02-28T15:23:09;15.80;39.20
41644;DHT22;44236;48.098;11.582;2023-02-28T15:25:36;15.80;39.20
41644;DHT22;44236;48.098;11.582;2023-02-28T15:28:02;15.80;39.00
41644;DHT22;44236;48.098;11.582;2023-02-28T15:30:30;15.80;39.00
41644;DHT22;44236;48.098;11.582;2023-02-28T15:33:19;15.80;39.00
41644;DHT22;44236;48.098;11.582;2023-02-28T15:35:46;15.80;39.20
41644;DHT22;44236;48.098;11.582;2023-02-28T15:40:45;15.70;39.20
41644;DHT22;44236;48.098;11.582;2023-02-28T15:43:18;15.80;39.90
41644;DHT22;44236;48.098;11.582;2023-02-28T15:45:50;15.80;39.40
41644;DHT22;44236;48.098;11.582;2023-02-28T15:48:32;15.80;39.40
41644;DHT22;44236;48.098;11.582;2023-02-28T15:56:25;15.80;39.30
41644;DHT22;44236;48.098;11.582;2023-02-28T15:59:03;15.70;39.40
41644;DHT22;44236;48.098;11.582;2023-02-28T16:01:38;15.70;39.30
41644;DHT22;44236;48.098;11.582;2023-02-28T16:04:10;15.80;40.40
41644;DHT22;44236;48.098;11.582;2023-02-28T16:06:45;15.10;33.90
41644;DHT22;44236;48.098;11.582;2023-02-28T16:09:13;14.30;34.20
41644;DHT22;44236;48.098;11.582;2023-02-28T16:11:45;13.80;35.60
41644;DHT22;44236;48.098;11.582;2023-02-28T16:14:24;14.00;36.00
41644;DHT22;44236;48.098;11.582;2023-02-28T16:16:53;14.30;37.00
41644;DHT22;44236;48.098;11.582;2023-02-28T16:19:21;14.60;37.30
41644;DHT22;44236;48.098;11.582;2023-02-28T16:21:47;14.70;37.90
41644;DHT22;44236;48.098;11.582;2023-02-28T16:24:13;14.90;37.10
41644;DHT22;44236;48.098;11.582;2023-02-28T16:26:40;15.00;36.80
41644;DHT22;44236;48.098;11.582;2023-02-28T16:29:08;15.10;36.70
41644;DHT22;44236;48.098;11.582;2023-02-28T16:31:38;15.20;36.70
41644;DHT22;44236;48.098;11.582;2023-02-28T16:34:05;15.40;36.70
41644;DHT22;44236;48.098;11.582;2023-02-28T16:36:31;15.60;36.90
41644;DHT22;44236;48.098;11.582;2023-02-28T16:38:56;15.70;36.80
41644;DHT22;44236;48.098;11.582;2023-02-28T16:41:25;15.80;36.70
41644;DHT22;44236;48.098;11.582;2023-02-28T16:43:53;16.00;36.60
41644;DHT22;44236;48.098;11.582;2023-02-28T16:46:20;16.10;36.50
41644;DHT22;44236;48.098;11.582;2023-02-28T16:48:46;16.20;36.30
41644;DHT22;44236;48.098;11.582;2023-02-28T16:51:17;16.30;36.50
41644;DHT22;44236;48.098;11.582;2023-02-28T16:53:43;16.50;36.40
41644;DHT22;44236;48.098;11.582;2023-02-28T16:56:35;16.70;36.20
41644;DHT22;44236;48.098;11.582;2023-02-28T16:59:02;16.70;36.10
41644;DHT22;44236;48.098;11.582;2023-02-28T17:01:28;16.80;36.20
41644;DHT22;44236;48.098;11.582;2023-02-28T17:03:54;16.80;36.20
41644;DHT22;44236;48.098;11.582;2023-02-28T17:06:28;16.90;36.20
41644;DHT22;44236;48.098;11.582;2023-02-28T17:08:54;17.00;36.20
41644;DHT22;44236;48.098;11.582;2023-02-28T17:11:21;17.00;36.10
41644;DHT22;44236;48.098;11.582;2023-02-28T17:13:47;17.10;36.10
41644;DHT22;44236;48.098;11.582;2023-02-28T17:16:26;17.30;36.00
41644;DHT22;44236;48.098;11.582;2023-02-28T17:18:55;17.40;36.10
41644;DHT22;44236;48.098;11.582;2023-02-28T17:21:22;17.60;36.10
41644;DHT22;44236;48.098;11.582;2023-02-28T17:23:47;17.60;35.70
41644;DHT22;44236;48.098;11.582;2023-02-28T17:26:18;17.70;35.80
41644;DHT22;44236;48.098;11.582;2023-02-28T17:28:50;17.70;35.90
41644;DHT22;44236;48.098;11.582;2023-02-28T17:31:17;17.70;35.90
41644;DHT22;44236;48.098;11.582;2023-02-28T17:33:43;17.70;36.00
41644;DHT22;44236;48.098;11.582;2023-02-28T17:36:18;17.80;36.00
41644;DHT22;44236;48.098;11.582;2023-02-28T17:38:49;17.90;36.10
41644;DHT22;44236;48.098;11.582;2023-02-28T17:41:14;18.00;35.80
41644;DHT22;44236;48.098;11.582;2023-02-28T17:43:40;18.00;35.80
41644;DHT22;44236;48.098;11.582;2023-02-28T17:46:14;18.00;35.90
41644;DHT22;44236;48.098;11.582;2023-02-28T17:48:41;18.00;36.00
41644;DHT22;44236;48.098;11.582;2023-02-28T17:51:11;18.10;36.00
41644;DHT22;44236;48.098;11.582;2023-02-28T17:53:37;18.10;36.00
41644;DHT22;44236;48.098;11.582;2023-02-28T17:56:03;18.20;36.00
41644;DHT22;44236;48.098;11.582;2023-02-28T17:58:29;18.20;36.00
41644;DHT22;44236;48.098;11.582;2023-02-28T18:00:56;18.20;35.90
41644;DHT22;44236;48.098;11.582;2023-02-28T18:03:22;18.20;35.90
41644;DHT22;44236;48.098;11.582;2023-02-28T18:05:49;18.30;35.80
41644;DHT22;44236;48.098;11.582;2023-02-28T18:08:16;18.30;35.80